• Join FlightAware (Why Join?)
  • Login
  • US Flag 
01:48AM EST


 

Airport Tracker/Info


-or-


 

Live Flight TrackerFlight Track Log ✈ N30VP ✈ 25-Oct-2013 ✈ KAFP - KOKV

Flight Track Log - Related Links

Times and Time Zones

All times are in EDT time to prevent confusion due to time zone crossing. See the N30VP flight status page for this flight to view local times or setup timezone preferences in your user account.

Time Position Orientation Groundspeed Altitude Reporting Facility
EDT Latitude Longitude Course Direction KTS MPH feet Rate Location/Type
10:11AM 35.3525 -79.8983 20° North 393 452 17,500  Level Washington Center
10:12AM 35.4522 -79.8528 20° North 388 447 17,500  Level Washington Center
10:13AM 35.5494 -79.8119 19° North 370 426 17,500  Level Washington Center
10:14AM 35.6492 -79.7686 19° North 370 426 17,500  Level Washington Center
10:15AM 35.7425 -79.7225 22° Northeast 365 420 17,500  Level Washington Center
10:16AM 35.8294 -79.6833 20° North 365 420 17,500  Level Washington Center
10:17AM 35.9353 -79.6375 19° North 360 414 17,500  Level Washington Center
10:18AM 36.0242 -79.6011 18° North 365 420 17,500  Level Washington Center
10:19AM 36.1303 -79.5525 20° North 372 428 17,500  Level Washington Center
10:20AM 36.2086 -79.5153 21° North 377 434 17,500  Level Washington Center
10:21AM 36.3314 -79.4594 20° North 377 434 17,500  Level Washington Center
10:22AM 36.4333 -79.4078 22° Northeast 382 440 17,500  Level Washington Center
10:23AM 36.5244 -79.3631 22° Northeast 382 440 17,500  Level Washington Center
10:24AM 36.6239 -79.3161 21° North 387 445 17,500  Level Washington Center
10:25AM 36.7256 -79.2692 20° North 387 445 17,500  Level Washington Center
10:26AM 36.8272 -79.2194 21° North 387 445 17,500  Level Washington Center
10:27AM 36.9353 -79.1675 21° North 381 438 17,500  Level Washington Center
10:28AM 37.0325 -79.1200 21° North 376 433 17,500  Level Washington Center
10:29AM 37.1319 -79.0750 20° North 376 433 17,500  Level Washington Center
10:30AM 37.2272 -79.0272 22° Northeast 376 433 17,500  Level Washington Center
10:31AM 37.3139 -78.9839 22° Northeast 376 433 17,500  Level Washington Center
10:32AM 37.4133 -78.9386 20° North 376 433 17,500  Level Washington Center
10:33AM 37.5106 -78.8933 20° North 376 433 17,500  Level Washington Center
10:34AM 37.6164 -78.8375 23° Northeast 376 433 17,500  Level Washington Center
10:35AM 37.7156 -78.7892 21° North 376 433 17,500 -60 Level Washington Center
10:36AM 37.8128 -78.7408 21° North 371 427 17,400 -60 Descending Washington Center
10:37AM 37.9100 -78.6975 19° North 371 427 17,400  Level Washington Center
10:38AM 37.9967 -78.6536 22° Northeast 376 433 17,400  Level Washington Center
10:39AM 38.0956 -78.6128 18° North 371 427 17,500  Climbing Washington Center
10:40AM 38.1958 -78.6036 North 364 419 17,400 -240 Descending Washington Center
10:41AM 38.3011 -78.5631 17° North 351 404 17,100 -240 Descending Washington Center
10:42AM 38.3989 -78.5775 353° North 338 389 17,000  Descending Washington Center
10:43AM 38.4961 -78.6053 347° North 346 398 17,100  Climbing Washington Center
10:44AM 38.5964 -78.5961 North 352 405 17,000 -660 Descending Washington Center
10:45AM 38.6925 -78.5894 North 352 405 15,800 -1,020 Descending Washington Center
10:46AM 38.7719 -78.5844 North 321 369 15,000 -1,620 Descending Washington Center
10:47AM 38.8353 -78.5525 21° North 238 274 12,700 -2,340 Descending Washington Center
10:48AM 38.8850 -78.4797 49° Northeast 248 285 10,400 -1,860 Descending Washington Center
10:49AM 38.9325 -78.4097 49° Northeast 248 285 9,000 -720 Descending Washington Center
10:50AM 38.9775 -78.3553 43° Northeast 248 285 9,000  Level Washington Center
10:51AM 39.0269 -78.2903 46° Northeast 248 285 9,000  Level Washington Center
10:52AM 39.0742 -78.2253 47° Northeast 248 285 9,000  Level Washington Center
10:53AM 39.0850 -78.2122 43° Northeast 248 285 9,000  Level Washington Center
10:55AM 39.0850 -78.2122 270° West 248 285 9,000  Level Washington Center
10:58AM 39.1333 -78.1333 46° Northeast  Level FlightAware Approximate
11:05AM 39.1435 -78.1444 46° Northeast  Level Estimated
11:06AM 39.1435 -78.1444 46° Northeast  Level Estimated
11:07AM 39.1435 -78.1444 46° Northeast  Level Estimated
11:08AM 39.1435 -78.1444 46° Northeast  Level Estimated
11:09AM 39.1435 -78.1444 46° Northeast  Level Estimated
11:10AM 39.1435 -78.1444 46° Northeast  Level Estimated